Time;durP1;ratioP1;P1;durP2;ratioP2;P2;SDS_P1;SDS_P2;PMS_P1;PMS_P2;Temp;Humidity;BMP_temperature;BMP_pressure;BME280_temperature;BME280_humidity;BME280_pressure;Samples;Min_cycle;Max_cycle;Signal;HPM_P1;HPM_P2
2021/10/26 00:01:47;;;;;;;8.23;7.33;;;13.00;94.50;;;;;;5096797;28;20475;-69
2021/10/26 00:04:14;;;;;;;8.97;7.43;;;13.10;94.60;;;;;;5096565;28;20941;-69
2021/10/26 00:06:41;;;;;;;10.53;6.93;;;13.00;94.50;;;;;;5097282;28;20456;-69
2021/10/26 00:09:07;;;;;;;7.63;6.60;;;13.10;94.50;;;;;;5096705;28;20440;-69
2021/10/26 00:11:36;;;;;;;10.63;8.40;;;13.10;94.40;;;;;;5096563;28;20472;-69
2021/10/26 00:14:02;;;;;;;10.93;7.53;;;13.10;94.40;;;;;;5096667;28;20443;-69
2021/10/26 00:16:29;;;;;;;9.13;7.10;;;13.10;94.50;;;;;;5097483;28;20440;-69
2021/10/26 00:18:56;;;;;;;13.40;7.80;;;13.10;94.50;;;;;;5096526;28;20501;-69
2021/10/26 00:21:23;;;;;;;7.80;7.00;;;13.10;94.40;;;;;;5096130;28;20475;-69
2021/10/26 00:23:50;;;;;;;9.63;6.80;;;13.10;94.30;;;;;;5096211;28;20457;-69
2021/10/26 00:26:16;;;;;;;10.90;6.67;;;13.10;94.30;;;;;;5096541;28;20447;-69
2021/10/26 00:28:44;;;;;;;10.17;7.23;;;13.10;94.30;;;;;;5096419;28;20451;-70
2021/10/26 00:31:11;;;;;;;14.03;8.00;;;13.10;94.20;;;;;;5096251;28;20467;-69
2021/10/26 00:33:38;;;;;;;9.70;7.30;;;13.10;94.20;;;;;;5095885;28;20440;-69
2021/10/26 00:36:05;;;;;;;11.40;7.87;;;13.10;94.20;;;;;;5096315;28;20481;-69
2021/10/26 00:38:31;;;;;;;8.50;6.77;;;13.10;94.20;;;;;;5095789;28;20965;-70
2021/10/26 00:40:59;;;;;;;8.47;7.60;;;13.10;94.20;;;;;;5096182;28;20476;-69
2021/10/26 00:43:26;;;;;;;12.03;6.70;;;13.10;94.10;;;;;;5096062;28;20554;-70
2021/10/26 00:45:55;;;;;;;8.10;6.77;;;13.10;94.20;;;;;;5095696;28;20444;-70
2021/10/26 00:48:22;;;;;;;11.63;6.83;;;13.10;94.20;;;;;;5096258;28;20455;-70
2021/10/26 00:50:49;;;;;;;11.20;7.47;;;13.10;94.10;;;;;;5095695;28;20474;-69
2021/10/26 00:53:17;;;;;;;11.23;7.10;;;13.00;94.30;;;;;;5095561;28;20930;-69
2021/10/26 00:55:44;;;;;;;10.70;7.53;;;13.00;94.30;;;;;;5095890;28;20452;-70
2021/10/26 00:58:11;;;;;;;11.90;7.73;;;13.00;94.30;;;;;;5095335;28;20456;-70
2021/10/26 01:00:37;;;;;;;11.30;7.17;;;13.00;94.20;;;;;;5095698;28;20471;-69
2021/10/26 01:03:06;;;;;;;11.07;7.07;;;13.00;94.30;;;;;;5095386;28;20432;-69
2021/10/26 01:05:32;;;;;;;11.00;7.20;;;13.00;94.40;;;;;;5095302;28;20444;-70
2021/10/26 01:07:59;;;;;;;11.50;7.50;;;12.90;94.40;;;;;;5095589;28;20470;-70
2021/10/26 01:10:26;;;;;;;11.40;6.60;;;13.00;94.50;;;;;;5094693;28;20472;-69
2021/10/26 01:12:53;;;;;;;9.80;6.70;;;13.00;94.60;;;;;;5095473;28;20451;-69
2021/10/26 01:15:20;;;;;;;10.10;6.90;;;13.00;94.60;;;;;;5095480;28;20812;-69
2021/10/26 01:17:47;;;;;;;9.30;6.93;;;12.90;94.60;;;;;;5095372;28;20444;-69
2021/10/26 01:20:15;;;;;;;9.83;7.40;;;12.90;94.60;;;;;;5094967;28;20996;-69
2021/10/26 01:22:42;;;;;;;7.87;7.03;;;12.90;94.70;;;;;;5095134;28;20537;-69
2021/10/26 01:25:10;;;;;;;10.37;6.77;;;12.90;94.90;;;;;;5095538;28;20452;-71
2021/10/26 01:27:41;;;;;;;9.63;6.77;;;13.00;95.00;;;;;;5095433;28;20812;-71
2021/10/26 01:30:10;;;;;;;11.07;7.47;;;13.00;95.20;;;;;;5094825;28;20464;-70
2021/10/26 01:32:38;;;;;;;8.80;7.30;;;13.00;95.20;;;;;;5095332;28;20448;-70
2021/10/26 01:35:06;;;;;;;12.80;7.40;;;13.00;95.20;;;;;;5095087;28;20436;-70
2021/10/26 01:37:34;;;;;;;9.90;8.10;;;13.00;95.10;;;;;;5094647;28;20505;-70
2021/10/26 01:40:01;;;;;;;10.40;7.90;;;13.00;95.00;;;;;;5094432;28;20483;-69
2021/10/26 01:42:28;;;;;;;12.70;7.93;;;13.00;95.10;;;;;;5094862;28;20821;-71
2021/10/26 01:44:56;;;;;;;10.00;8.27;;;13.00;94.90;;;;;;5094603;28;20447;-70
2021/10/26 01:47:23;;;;;;;13.30;7.27;;;13.00;94.90;;;;;;5094512;28;20942;-70
2021/10/26 01:49:49;;;;;;;9.70;8.10;;;13.00;94.90;;;;;;5094701;28;20470;-69
2021/10/26 01:52:16;;;;;;;11.23;7.97;;;12.90;94.90;;;;;;5094717;28;20455;-69
2021/10/26 01:54:45;;;;;;;8.63;6.93;;;12.90;94.90;;;;;;5094662;28;20541;-69
2021/10/26 01:57:16;;;;;;;11.00;7.70;;;12.90;94.90;;;;;;5094378;28;20984;-69
2021/10/26 01:59:42;;;;;;;11.17;8.23;;;12.90;95.10;;;;;;5094482;28;20468;-70
2021/10/26 02:02:09;;;;;;;7.80;7.00;;;12.80;95.10;;;;;;5094565;28;20428;-70
2021/10/26 02:04:36;;;;;;;8.80;7.03;;;12.90;95.20;;;;;;5094475;28;20463;-71
2021/10/26 02:07:03;;;;;;;10.47;7.03;;;12.80;95.10;;;;;;5094480;28;20451;-70
2021/10/26 02:09:30;;;;;;;8.90;7.60;;;12.90;95.20;;;;;;5094442;28;20455;-69
2021/10/26 02:11:59;;;;;;;13.87;8.60;;;12.90;95.20;;;;;;5094058;28;20456;-70
2021/10/26 02:14:26;;;;;;;14.30;9.27;;;12.90;95.30;;;;;;5094034;28;20945;-70
2021/10/26 02:16:52;;;;;;;9.93;7.30;;;12.90;95.40;;;;;;5093946;28;20953;-70
2021/10/26 02:19:19;;;;;;;14.73;8.70;;;12.90;95.40;;;;;;5094956;28;20529;-70
2021/10/26 02:21:46;;;;;;;9.80;8.80;;;12.90;95.50;;;;;;5094218;28;20554;-70
2021/10/26 02:24:13;;;;;;;12.47;8.47;;;12.90;95.50;;;;;;5094112;28;20447;-72
2021/10/26 02:26:40;;;;;;;14.43;9.40;;;12.90;95.50;;;;;;5093980;28;20937;-72
2021/10/26 02:29:08;;;;;;;12.00;8.63;;;13.00;95.60;;;;;;5094135;28;20443;-72
2021/10/26 02:31:35;;;;;;;11.73;8.50;;;13.00;95.60;;;;;;5094001;28;20478;-70
2021/10/26 02:34:05;;;;;;;10.83;9.03;;;13.00;95.60;;;;;;5094042;28;20446;-71
2021/10/26 02:36:31;;;;;;;11.73;8.40;;;12.90;95.60;;;;;;5093662;28;20832;-72
2021/10/26 02:38:58;;;;;;;16.13;9.37;;;12.90;95.70;;;;;;5093622;28;20486;-71
2021/10/26 02:41:25;;;;;;;13.20;8.50;;;12.90;95.70;;;;;;5093619;28;20981;-71
2021/10/26 02:43:52;;;;;;;12.10;9.30;;;12.90;95.80;;;;;;5093966;28;20446;-71
2021/10/26 02:46:20;;;;;;;19.10;9.17;;;12.90;95.70;;;;;;5094301;28;20941;-71
2021/10/26 02:48:48;;;;;;;13.93;9.90;;;12.90;95.70;;;;;;5094233;28;20444;-71
2021/10/26 02:51:15;;;;;;;11.50;9.50;;;12.90;95.80;;;;;;5093884;28;20510;-71
2021/10/26 02:53:41;;;;;;;12.97;9.00;;;12.90;95.80;;;;;;5093914;28;20447;-71
2021/10/26 02:56:08;;;;;;;14.27;10.33;;;12.90;95.60;;;;;;5093838;28;20934;-71
2021/10/26 02:58:35;;;;;;;11.10;9.43;;;12.90;95.60;;;;;;5093591;28;20434;-71
2021/10/26 03:01:02;;;;;;;15.60;9.97;;;12.90;95.60;;;;;;5093721;28;20467;-71
2021/10/26 03:03:30;;;;;;;17.30;9.60;;;12.90;95.60;;;;;;5093459;28;20455;-72
2021/10/26 03:05:57;;;;;;;16.43;9.97;;;12.90;95.60;;;;;;5093403;28;20440;-69
2021/10/26 03:08:24;;;;;;;13.60;9.20;;;12.90;95.50;;;;;;5093403;28;20456;-70
2021/10/26 03:10:51;;;;;;;12.43;9.97;;;12.90;95.60;;;;;;5093587;28;20475;-70
2021/10/26 03:13:17;;;;;;;15.17;11.63;;;12.80;95.50;;;;;;5093668;28;20430;-70
2021/10/26 03:15:44;;;;;;;14.30;9.40;;;12.90;95.60;;;;;;5093284;28;20938;-69
2021/10/26 03:18:11;;;;;;;12.03;9.13;;;12.80;95.50;;;;;;5093705;28;20443;-69
2021/10/26 03:20:39;;;;;;;11.60;9.50;;;12.80;95.50;;;;;;5093912;28;20494;-69
2021/10/26 03:23:06;;;;;;;14.37;10.20;;;12.80;95.50;;;;;;5093908;28;20451;-70
2021/10/26 03:25:33;;;;;;;17.97;9.67;;;12.80;95.50;;;;;;5093843;28;20444;-70
2021/10/26 03:28:00;;;;;;;13.17;9.70;;;12.80;95.40;;;;;;5094436;28;20852;-71
2021/10/26 03:30:27;;;;;;;12.27;9.67;;;12.80;95.30;;;;;;5093234;28;20468;-69
2021/10/26 03:32:54;;;;;;;10.07;8.60;;;12.80;95.20;;;;;;5094250;28;20454;-69
2021/10/26 03:35:20;;;;;;;13.17;9.63;;;12.80;95.10;;;;;;5097502;28;20481;-69
2021/10/26 03:37:49;;;;;;;12.30;9.70;;;12.80;95.00;;;;;;5096929;28;20451;-70
2021/10/26 03:40:16;;;;;;;12.00;9.73;;;12.80;94.80;;;;;;5096814;28;20877;-69
2021/10/26 03:42:43;;;;;;;16.23;10.00;;;12.70;94.70;;;;;;5097294;28;20443;-69
2021/10/26 03:45:10;;;;;;;13.83;10.90;;;12.70;94.70;;;;;;5097146;28;20447;-70
2021/10/26 03:47:41;;;;;;;12.00;9.47;;;12.70;94.70;;;;;;5096909;28;20921;-69
2021/10/26 03:50:09;;;;;;;15.50;9.50;;;12.70;94.70;;;;;;5097306;28;20466;-69
2021/10/26 03:52:36;;;;;;;16.90;9.97;;;12.60;94.70;;;;;;5097112;28;20447;-69
2021/10/26 03:55:06;;;;;;;14.20;10.40;;;12.60;94.80;;;;;;5097051;28;20447;-69
2021/10/26 03:57:33;;;;;;;13.20;10.30;;;12.60;94.80;;;;;;5096934;28;20447;-69
2021/10/26 04:00:00;;;;;;;14.63;10.13;;;12.50;94.80;;;;;;5096746;28;20479;-69
2021/10/26 04:02:27;;;;;;;13.20;10.37;;;12.50;94.90;;;;;;5096593;28;20800;-69
2021/10/26 04:04:58;;;;;;;12.00;10.30;;;12.50;95.10;;;;;;5096847;28;20451;-70
2021/10/26 04:07:26;;;;;;;15.50;11.37;;;12.50;95.20;;;;;;5096513;28;20432;-70
2021/10/26 04:09:59;;;;;;;16.07;9.90;;;12.50;95.40;;;;;;5097096;28;20459;-69
2021/10/26 04:12:27;;;;;;;15.43;9.57;;;12.50;95.60;;;;;;5096659;28;20435;-69
2021/10/26 04:14:55;;;;;;;12.03;9.10;;;12.50;95.70;;;;;;5096447;28;20440;-69
2021/10/26 04:17:22;;;;;;;16.43;10.40;;;12.40;95.80;;;;;;5096252;28;20937;-69
2021/10/26 04:19:50;;;;;;;14.03;10.77;;;12.40;96.00;;;;;;5096330;28;20491;-69
2021/10/26 04:22:20;;;;;;;13.40;10.20;;;12.40;96.20;;;;;;5096203;28;20450;-69
2021/10/26 04:24:47;;;;;;;14.93;11.30;;;12.40;96.40;;;;;;5096164;28;20901;-69
2021/10/26 04:27:14;;;;;;;16.63;11.50;;;12.50;96.40;;;;;;5096340;28;20456;-69
2021/10/26 04:29:42;;;;;;;15.10;10.77;;;12.50;96.40;;;;;;5096216;28;20442;-69
2021/10/26 04:32:10;;;;;;;13.17;10.50;;;12.50;96.50;;;;;;5096332;28;20467;-70
2021/10/26 04:34:38;;;;;;;13.80;10.57;;;12.50;96.50;;;;;;5096228;28;20448;-70
2021/10/26 04:37:07;;;;;;;14.37;11.00;;;12.50;96.50;;;;;;5095904;28;20463;-70
2021/10/26 04:39:34;;;;;;;14.53;10.27;;;12.60;96.60;;;;;;5096006;28;20493;-69
2021/10/26 04:42:01;;;;;;;15.13;10.13;;;12.60;96.60;;;;;;5095794;28;20497;-69
2021/10/26 04:44:28;;;;;;;11.67;10.47;;;12.60;96.60;;;;;;5094527;28;20900;-69
2021/10/26 04:46:56;;;;;;;12.60;11.30;;;12.70;96.60;;;;;;5096771;28;20447;-69
2021/10/26 04:49:23;;;;;;;12.70;10.03;;;12.70;96.60;;;;;;5095638;28;20956;-69
2021/10/26 04:51:50;;;;;;;14.20;10.10;;;12.70;96.60;;;;;;5095607;28;20997;-69
2021/10/26 04:54:16;;;;;;;15.40;10.77;;;12.70;96.60;;;;;;5096117;28;20456;-69
2021/10/26 04:56:43;;;;;;;13.37;10.40;;;12.70;96.60;;;;;;5095924;28;20451;-70
2021/10/26 04:59:10;;;;;;;11.57;9.23;;;12.70;96.40;;;;;;5095366;28;20450;-70
2021/10/26 05:01:37;;;;;;;15.17;9.37;;;12.80;96.30;;;;;;5095546;28;20475;-70
2021/10/26 05:04:05;;;;;;;20.40;9.23;;;12.80;96.20;;;;;;5095924;28;20440;-70
2021/10/26 05:06:31;;;;;;;11.50;8.23;;;12.80;96.10;;;;;;5095583;28;20471;-70
2021/10/26 05:08:58;;;;;;;15.03;9.57;;;12.80;96.00;;;;;;5096363;28;20518;-70
2021/10/26 05:11:25;;;;;;;9.60;8.50;;;12.80;95.90;;;;;;5096031;28;20971;-70
2021/10/26 05:13:52;;;;;;;15.60;9.40;;;12.80;95.90;;;;;;5095162;28;20456;-70
2021/10/26 05:16:19;;;;;;;11.80;8.27;;;12.70;95.80;;;;;;5095167;28;20789;-69
2021/10/26 05:18:50;;;;;;;14.00;9.00;;;12.70;95.90;;;;;;5095391;28;20451;-69
2021/10/26 05:21:20;;;;;;;11.80;9.00;;;12.70;95.80;;;;;;5095216;28;20483;-69
2021/10/26 05:23:48;;;;;;;18.40;9.43;;;12.70;95.90;;;;;;5095351;28;20850;-70
2021/10/26 05:26:15;;;;;;;15.17;9.40;;;12.70;96.00;;;;;;5095266;28;20487;-70
2021/10/26 05:28:43;;;;;;;17.50;10.10;;;12.70;96.00;;;;;;5095223;28;20432;-71
2021/10/26 05:31:10;;;;;;;14.67;8.93;;;12.70;96.00;;;;;;5095057;28;20491;-71
2021/10/26 05:33:38;;;;;;;14.13;9.27;;;12.70;96.00;;;;;;5095052;28;20500;-71
2021/10/26 05:36:05;;;;;;;12.90;8.23;;;12.70;96.10;;;;;;5094995;28;20795;-71
2021/10/26 05:38:34;;;;;;;9.43;8.30;;;12.60;96.10;;;;;;5094911;28;20468;-71
2021/10/26 05:41:01;;;;;;;14.17;8.57;;;12.60;96.20;;;;;;5095015;28;20480;-70
2021/10/26 05:43:27;;;;;;;12.60;8.70;;;12.50;96.10;;;;;;5094968;28;20454;-70
2021/10/26 05:45:55;;;;;;;22.17;8.50;;;12.50;96.30;;;;;;5094750;28;20439;-70
2021/10/26 05:48:22;;;;;;;15.27;8.87;;;12.50;96.30;;;;;;5094794;28;20516;-71
2021/10/26 05:50:49;;;;;;;12.40;9.00;;;12.50;96.20;;;;;;5094607;28;20970;-71
2021/10/26 05:53:16;;;;;;;16.07;9.73;;;12.50;96.20;;;;;;5094391;28;20902;-70
2021/10/26 05:55:44;;;;;;;9.77;8.27;;;12.50;96.20;;;;;;5094358;28;20455;-70
2021/10/26 05:58:12;;;;;;;9.10;7.83;;;12.50;96.50;;;;;;5094608;28;20444;-70
2021/10/26 06:00:39;;;;;;;13.37;8.60;;;12.40;96.00;;;;;;5094372;28;20480;-71
2021/10/26 06:03:06;;;;;;;12.33;7.77;;;12.50;96.20;;;;;;5094219;28;20953;-70
2021/10/26 06:05:33;;;;;;;11.83;9.00;;;12.40;96.30;;;;;;5094689;28;20518;-70
2021/10/26 06:08:00;;;;;;;10.63;8.47;;;12.40;96.40;;;;;;5094426;28;20451;-71
2021/10/26 06:10:28;;;;;;;14.00;8.73;;;12.40;96.50;;;;;;5094328;28;20545;-70
2021/10/26 06:12:57;;;;;;;20.23;8.93;;;12.40;96.60;;;;;;5094362;28;20448;-70
2021/10/26 06:15:24;;;;;;;11.53;8.40;;;12.40;96.70;;;;;;5093961;28;20990;-70
2021/10/26 06:17:51;;;;;;;10.63;8.07;;;12.40;96.70;;;;;;5094481;28;20450;-70
2021/10/26 06:20:17;;;;;;;12.50;7.77;;;12.40;96.70;;;;;;5093776;28;21019;-70
2021/10/26 06:22:45;;;;;;;13.53;8.30;;;12.50;96.70;;;;;;5094212;28;20443;-71
2021/10/26 06:25:11;;;;;;;11.27;8.03;;;12.50;96.60;;;;;;5094175;28;20810;-72
2021/10/26 06:27:38;;;;;;;11.30;8.67;;;12.50;96.50;;;;;;5094133;28;20447;-72
2021/10/26 06:30:07;;;;;;;12.93;9.10;;;12.50;96.60;;;;;;5093884;28;20475;-71
2021/10/26 06:32:34;;;;;;;11.80;8.10;;;12.60;96.70;;;;;;5093678;28;20439;-71
2021/10/26 06:35:01;;;;;;;10.50;7.63;;;12.60;96.80;;;;;;5094168;28;20539;-71
2021/10/26 06:37:30;;;;;;;13.47;8.30;;;12.60;96.80;;;;;;5093744;28;20995;-71
2021/10/26 06:39:57;;;;;;;15.07;8.63;;;12.70;96.80;;;;;;5094431;28;20798;-71
2021/10/26 06:42:24;;;;;;;11.43;8.80;;;12.70;96.60;;;;;;5095380;28;20432;-71
2021/10/26 06:44:51;;;;;;;16.67;10.30;;;12.80;96.50;;;;;;5094717;28;20534;-71
2021/10/26 06:47:19;;;;;;;16.53;8.37;;;12.70;96.50;;;;;;5093803;28;20435;-71
2021/10/26 06:49:46;;;;;;;18.23;7.80;;;12.80;96.50;;;;;;5093664;28;20448;-71
2021/10/26 06:52:13;;;;;;;17.20;8.40;;;12.90;96.50;;;;;;5093712;28;20432;-71
2021/10/26 06:54:40;;;;;;;17.93;8.43;;;12.90;96.40;;;;;;5093706;28;20515;-71
2021/10/26 06:57:07;;;;;;;12.93;8.53;;;12.90;96.20;;;;;;5093899;28;20497;-71
2021/10/26 06:59:34;;;;;;;13.33;7.67;;;12.90;96.10;;;;;;5094041;28;20863;-70
2021/10/26 07:02:02;;;;;;;10.80;7.50;;;13.00;96.20;;;;;;5093257;28;20505;-71
2021/10/26 07:04:31;;;;;;;13.53;7.60;;;13.00;96.10;;;;;;5093245;28;20775;-71
2021/10/26 07:06:58;;;;;;;11.60;6.90;;;13.00;96.10;;;;;;5093295;28;20463;-71
2021/10/26 07:09:25;;;;;;;14.47;8.10;;;13.00;96.10;;;;;;5092711;28;20446;-71
2021/10/26 07:11:53;;;;;;;12.23;7.50;;;13.00;96.00;;;;;;5093122;28;20898;-71
2021/10/26 07:14:20;;;;;;;15.20;8.10;;;13.10;96.10;;;;;;5093364;28;20460;-71
2021/10/26 07:16:47;;;;;;;12.60;7.87;;;13.10;95.90;;;;;;5093193;28;20444;-71
2021/10/26 07:19:14;;;;;;;14.33;7.50;;;13.10;95.90;;;;;;5092965;28;20518;-71
2021/10/26 07:21:42;;;;;;;11.30;7.60;;;13.20;95.90;;;;;;5093217;28;20487;-71
2021/10/26 07:24:12;;;;;;;9.60;6.90;;;13.20;95.80;;;;;;5093392;28;20440;-71
2021/10/26 07:26:38;;;;;;;13.53;6.70;;;13.30;95.90;;;;;;5093307;28;20486;-71
2021/10/26 07:29:05;;;;;;;13.80;6.60;;;13.20;95.80;;;;;;5093089;28;20443;-71
2021/10/26 07:31:32;;;;;;;12.97;7.13;;;13.30;95.80;;;;;;5093279;28;20459;-71
2021/10/26 07:34:00;;;;;;;13.73;7.00;;;13.30;95.70;;;;;;5093333;28;20459;-71
2021/10/26 07:36:31;;;;;;;14.07;6.60;;;13.40;95.70;;;;;;5093166;28;20456;-71
2021/10/26 07:39:03;;;;;;;13.43;6.30;;;13.50;95.70;;;;;;5093324;28;20432;-71
2021/10/26 07:41:29;;;;;;;8.97;6.57;;;13.50;95.70;;;;;;5093194;28;20479;-71
2021/10/26 07:43:56;;;;;;;13.23;6.80;;;13.60;95.60;;;;;;5092916;28;20934;-71
2021/10/26 07:46:23;;;;;;;10.37;5.87;;;13.60;95.50;;;;;;5093163;28;20439;-71
2021/10/26 07:48:50;;;;;;;9.63;6.30;;;13.70;95.20;;;;;;5093185;28;20451;-71
2021/10/26 07:51:17;;;;;;;11.10;6.27;;;13.70;95.10;;;;;;5092826;28;20487;-71
2021/10/26 07:53:44;;;;;;;10.50;5.87;;;13.70;94.90;;;;;;5093203;28;20432;-71
2021/10/26 07:56:12;;;;;;;11.90;5.80;;;13.80;95.00;;;;;;5093130;28;20478;-71
2021/10/26 07:58:41;;;;;;;8.10;6.03;;;13.80;94.90;;;;;;5093037;28;20451;-72
2021/10/26 08:01:08;;;;;;;9.30;6.23;;;13.80;94.70;;;;;;5092859;28;20491;-71
2021/10/26 08:03:35;;;;;;;12.23;6.20;;;13.80;94.70;;;;;;5093160;28;20455;-71
2021/10/26 08:06:02;;;;;;;6.40;5.77;;;13.80;94.70;;;;;;5092957;28;20451;-71
2021/10/26 08:08:29;;;;;;;7.53;5.57;;;13.80;94.60;;;;;;5093071;28;20489;-71
2021/10/26 08:10:56;;;;;;;8.60;5.93;;;13.80;94.60;;;;;;5092904;28;20458;-71
2021/10/26 08:13:24;;;;;;;10.40;5.47;;;13.90;94.50;;;;;;5094119;28;20505;-72
2021/10/26 08:15:51;;;;;;;11.33;6.13;;;13.80;94.40;;;;;;5092928;28;20465;-72
2021/10/26 08:18:18;;;;;;;11.60;5.50;;;13.80;94.50;;;;;;5092922;28;20550;-71
2021/10/26 08:20:48;;;;;;;10.67;5.00;;;13.90;94.40;;;;;;5096345;28;20479;-71
2021/10/26 08:23:15;;;;;;;10.30;4.90;;;13.90;94.20;;;;;;5096456;28;20447;-71
2021/10/26 08:25:46;;;;;;;9.93;5.27;;;13.80;94.00;;;;;;5096094;28;20637;-71
2021/10/26 08:28:15;;;;;;;9.87;4.90;;;13.80;94.10;;;;;;5096416;28;20610;-71
2021/10/26 08:30:48;;;;;;;10.87;4.90;;;13.80;94.10;;;;;;5096136;28;20467;-71
2021/10/26 08:33:22;;;;;;;7.23;4.43;;;13.90;94.60;;;;;;5096045;28;20775;-71
2021/10/26 08:35:49;;;;;;;7.13;5.10;;;14.10;94.20;;;;;;5095794;28;20424;-71
2021/10/26 08:38:17;;;;;;;7.40;4.63;;;14.20;93.90;;;;;;5096057;28;20447;-71
2021/10/26 08:40:47;;;;;;;13.00;5.23;;;14.30;93.50;;;;;;5095839;28;20479;-71
2021/10/26 08:43:15;;;;;;;9.50;3.80;;;14.40;93.30;;;;;;5096141;28;20432;-71
2021/10/26 08:45:48;;;;;;;5.83;4.17;;;14.40;92.80;;;;;;5096010;28;20455;-71
2021/10/26 08:48:20;;;;;;;15.40;4.60;;;14.50;92.70;;;;;;5096038;28;20847;-71
2021/10/26 08:50:47;;;;;;;7.33;4.90;;;14.50;92.30;;;;;;5095951;28;20927;-71
2021/10/26 08:53:14;;;;;;;9.37;4.77;;;14.50;92.20;;;;;;5095899;28;20821;-71
2021/10/26 08:55:41;;;;;;;6.93;4.17;;;14.60;92.20;;;;;;5095861;28;20447;-71
2021/10/26 08:58:09;;;;;;;5.27;4.40;;;14.60;91.90;;;;;;5095858;28;20444;-71
2021/10/26 09:00:36;;;;;;;10.57;4.70;;;14.60;91.90;;;;;;5095555;28;20489;-71
2021/10/26 09:03:17;;;;;;;9.33;4.70;;;14.60;92.30;;;;;;5095717;28;20451;-71
2021/10/26 09:05:46;;;;;;;9.80;4.30;;;14.50;91.90;;;;;;5095700;28;20432;-71
2021/10/26 09:08:13;;;;;;;8.13;4.13;;;14.50;92.00;;;;;;5095400;28;21012;-72
2021/10/26 09:10:41;;;;;;;11.20;4.70;;;14.50;91.90;;;;;;5095683;28;20459;-71
2021/10/26 09:18:42;;;;;;;7.63;4.33;;;14.70;91.60;;;;;;5095864;28;20404;-71
2021/10/26 09:21:24;;;;;;;7.90;3.80;;;14.80;91.10;;;;;;5095304;28;20490;-71
2021/10/26 09:23:55;;;;;;;7.70;4.50;;;14.80;91.10;;;;;;5095446;28;20460;-72
2021/10/26 09:26:22;;;;;;;8.23;4.00;;;15.00;91.20;;;;;;5095599;28;20519;-72
2021/10/26 09:28:52;;;;;;;7.27;3.67;;;15.10;90.80;;;;;;5095387;28;20823;-72
2021/10/26 09:31:24;;;;;;;12.13;4.03;;;15.10;90.40;;;;;;5094330;28;20468;-71
2021/10/26 09:34:05;;;;;;;9.13;4.03;;;15.00;90.00;;;;;;5096334;28;20428;-71
2021/10/26 09:36:33;;;;;;;3.87;3.13;;;14.90;90.40;;;;;;5095042;28;20486;-71
2021/10/26 09:39:12;;;;;;;6.90;3.93;;;14.80;90.20;;;;;;5095085;28;20436;-71
2021/10/26 09:42:03;;;;;;;9.87;3.90;;;14.60;90.40;;;;;;5094926;28;20515;-71
2021/10/26 09:44:33;;;;;;;6.27;4.07;;;14.60;91.00;;;;;;5095015;28;20495;-71
2021/10/26 09:47:04;;;;;;;10.30;5.70;;;14.70;91.20;;;;;;5095073;28;20908;-71
2021/10/26 09:49:34;;;;;;;5.00;3.97;;;14.80;91.20;;;;;;5094561;28;20507;-71
2021/10/26 09:52:12;;;;;;;3.87;2.90;;;14.90;90.90;;;;;;5094873;28;20440;-71
2021/10/26 09:54:40;;;;;;;6.50;3.07;;;15.00;90.90;;;;;;5094775;28;20544;-72
2021/10/26 09:57:08;;;;;;;7.03;3.20;;;15.20;90.80;;;;;;5094614;28;20527;-72
2021/10/26 09:59:37;;;;;;;4.70;2.80;;;15.30;89.40;;;;;;5094564;28;20435;-71
2021/10/26 10:02:04;;;;;;;5.23;2.80;;;15.40;88.70;;;;;;5094243;28;20605;-71
2021/10/26 10:04:33;;;;;;;4.73;2.60;;;15.50;88.00;;;;;;5094599;28;20428;-71
2021/10/26 10:07:01;;;;;;;5.30;3.03;;;15.60;87.40;;;;;;5094252;28;20489;-71
2021/10/26 10:09:29;;;;;;;7.43;2.73;;;15.60;86.80;;;;;;5094490;28;20474;-71
2021/10/26 10:12:01;;;;;;;6.27;2.97;;;15.50;85.80;;;;;;5094293;28;20547;-71
2021/10/26 10:14:28;;;;;;;5.70;3.70;;;15.60;85.90;;;;;;5094360;28;20534;-71
2021/10/26 10:16:55;;;;;;;4.30;3.43;;;15.60;86.50;;;;;;5094311;28;20440;-71
2021/10/26 10:19:22;;;;;;;6.30;3.10;;;15.50;86.10;;;;;;5094495;28;20567;-71
2021/10/26 10:21:52;;;;;;;7.20;3.23;;;15.50;86.90;;;;;;5095591;28;20564;-71
2021/10/26 10:24:20;;;;;;;4.80;2.63;;;15.50;87.50;;;;;;5093938;28;20444;-71
2021/10/26 10:26:52;;;;;;;6.03;2.93;;;15.60;86.50;;;;;;5094128;28;20467;-71
2021/10/26 10:29:21;;;;;;;5.20;2.67;;;15.70;86.50;;;;;;5094121;28;20900;-71
2021/10/26 10:31:50;;;;;;;7.53;3.03;;;15.90;85.90;;;;;;5093975;28;20459;-71
2021/10/26 10:34:21;;;;;;;12.30;3.63;;;16.10;84.80;;;;;;5093999;28;20858;-71
2021/10/26 10:36:53;;;;;;;7.07;3.43;;;16.10;83.40;;;;;;5093519;28;20455;-71
2021/10/26 10:39:27;;;;;;;6.90;3.90;;;16.10;83.20;;;;;;5093991;28;20787;-71
2021/10/26 10:42:10;;;;;;;8.63;3.27;;;16.10;83.60;;;;;;5093409;28;20486;-71
2021/10/26 10:44:39;;;;;;;3.67;2.70;;;16.10;82.50;;;;;;5093691;28;20431;-71
2021/10/26 10:47:12;;;;;;;7.90;2.67;;;16.20;83.80;;;;;;5093782;28;20805;-71
2021/10/26 10:49:50;;;;;;;6.10;2.30;;;16.50;82.50;;;;;;5093421;28;20904;-71
2021/10/26 10:52:27;;;;;;;4.10;2.57;;;16.80;81.60;;;;;;5093746;28;20424;-71
2021/10/26 10:54:56;;;;;;;4.10;2.83;;;17.20;80.10;;;;;;5093349;28;20917;-71
2021/10/26 10:57:28;;;;;;;5.90;2.73;;;17.50;77.70;;;;;;5093337;28;20443;-71
2021/10/26 10:59:56;;;;;;;4.93;2.67;;;17.60;75.20;;;;;;5093600;28;20428;-71
2021/10/26 11:02:25;;;;;;;4.77;2.73;;;17.70;75.50;;;;;;5093191;28;20471;-71
2021/10/26 11:04:53;;;;;;;9.23;3.23;;;17.40;72.90;;;;;;5093591;28;20443;-72
2021/10/26 11:07:54;;;;;;;10.83;3.00;;;17.20;75.00;;;;;;5094820;28;20448;-72
2021/10/26 11:10:21;;;;;;;6.63;2.97;;;17.30;75.10;;;;;;5093519;28;20567;-72
2021/10/26 11:12:50;;;;;;;4.37;2.30;;;17.30;74.70;;;;;;5093547;28;20574;-71
2021/10/26 11:15:42;;;;;;;9.23;2.87;;;17.50;76.30;;;;;;5093498;28;20542;-71
2021/10/26 11:18:09;;;;;;;7.70;3.03;;;17.60;74.20;;;;;;5093197;28;20941;-71
2021/10/26 11:20:49;;;;;;;6.30;2.67;;;17.50;73.90;;;;;;5093395;28;20463;-71
2021/10/26 11:23:34;;;;;;;5.20;2.10;;;17.30;73.80;;;;;;5093168;28;21025;-71
2021/10/26 11:26:04;;;;;;;7.20;2.50;;;17.20;75.10;;;;;;5093455;28;20440;-69
2021/10/26 11:28:36;;;;;;;4.97;2.37;;;17.20;73.50;;;;;;5093379;28;20444;-72
2021/10/26 11:31:06;;;;;;;5.23;2.67;;;17.60;73.60;;;;;;5093366;28;20467;-72
2021/10/26 11:33:36;;;;;;;5.93;2.77;;;17.70;70.90;;;;;;5093660;28;20428;-73
2021/10/26 11:36:06;;;;;;;5.73;2.40;;;17.90;71.80;;;;;;5093526;28;20431;-70
2021/10/26 11:38:44;;;;;;;6.70;2.60;;;17.90;69.40;;;;;;5093718;28;20520;-70
2021/10/26 11:41:12;;;;;;;5.30;3.10;;;17.80;70.60;;;;;;5093174;28;20490;-70
2021/10/26 11:43:41;;;;;;;5.13;2.70;;;17.80;72.10;;;;;;5093963;28;20841;-70
2021/10/26 11:46:11;;;;;;;4.77;2.47;;;18.20;71.00;;;;;;5093220;28;20493;-70
2021/10/26 11:48:46;;;;;;;5.83;3.27;;;18.80;69.40;;;;;;5093157;28;20454;-70
2021/10/26 11:51:22;;;;;;;6.70;2.90;;;19.50;66.30;;;;;;5093976;28;20475;-70
2021/10/26 11:53:51;;;;;;;9.20;2.83;;;19.60;62.80;;;;;;5093811;28;20431;-70
2021/10/26 11:56:20;;;;;;;7.40;3.13;;;19.50;62.70;;;;;;5097177;28;20428;-72
2021/10/26 11:58:57;;;;;;;6.40;2.73;;;19.20;63.30;;;;;;5097002;28;20777;-72
2021/10/26 12:01:36;;;;;;;6.07;2.70;;;18.90;64.10;;;;;;5096995;28;20474;-73
2021/10/26 12:04:05;;;;;;;3.70;2.30;;;19.20;66.10;;;;;;5096818;28;20428;-73
2021/10/26 12:06:34;;;;;;;9.23;2.83;;;19.60;61.70;;;;;;5096914;28;20451;-73
2021/10/26 12:09:05;;;;;;;8.17;2.40;;;19.90;59.90;;;;;;5097032;28;20542;-73
2021/10/26 12:11:34;;;;;;;6.27;1.90;;;20.10;60.70;;;;;;5096714;28;20525;-72
2021/10/26 12:14:33;;;;;;;4.67;1.80;;;20.10;58.70;;;;;;5096782;28;20434;-72
2021/10/26 12:17:12;;;;;;;4.53;2.13;;;19.90;60.30;;;;;;5096400;28;20481;-72
2021/10/26 12:19:41;;;;;;;9.30;2.10;;;20.30;60.50;;;;;;5096504;28;20431;-72
2021/10/26 12:22:16;;;;;;;4.30;2.00;;;20.10;59.20;;;;;;5096374;28;20484;-72
2021/10/26 12:24:50;;;;;;;8.43;2.40;;;19.60;59.20;;;;;;5096449;28;20435;-72
2021/10/26 12:27:25;;;;;;;6.90;2.23;;;19.30;61.50;;;;;;5096119;28;20901;-72
2021/10/26 12:29:52;;;;;;;4.93;2.27;;;19.10;62.30;;;;;;5096390;28;20428;-72
2021/10/26 12:32:22;;;;;;;11.63;2.60;;;18.80;63.60;;;;;;5096291;28;20444;-73
2021/10/26 12:34:52;;;;;;;5.73;2.10;;;18.50;64.20;;;;;;5096311;28;20497;-70
2021/10/26 12:37:31;;;;;;;5.10;2.23;;;18.30;65.00;;;;;;5096428;28;20959;-70
2021/10/26 12:40:01;;;;;;;7.20;1.90;;;18.60;65.20;;;;;;5095945;28;20965;-70
2021/10/26 12:42:38;;;;;;;4.00;2.30;;;18.80;62.80;;;;;;5096135;28;20521;-71
2021/10/26 12:45:09;;;;;;;3.13;1.57;;;19.20;62.10;;;;;;5096127;28;20436;-71
2021/10/26 12:47:56;;;;;;;6.57;1.87;;;19.00;60.50;;;;;;5096167;28;20503;-71
2021/10/26 12:50:30;;;;;;;6.03;2.10;;;18.70;62.60;;;;;;5096129;28;20474;-70
2021/10/26 12:53:15;;;;;;;5.13;2.00;;;18.80;62.90;;;;;;5096866;28;20428;-70
2021/10/26 12:55:45;;;;;;;5.37;1.77;;;19.00;61.80;;;;;;5095889;28;20448;-70